createdAt,value
2018-04-24T00:00:15.943Z,4.57
2018-04-24T00:02:41.977Z,5.80
2018-04-24T00:05:08.414Z,6.03
2018-04-24T00:07:34.454Z,5.03
2018-04-24T00:10:00.485Z,5.13
2018-04-24T00:12:26.577Z,4.43
2018-04-24T00:14:52.721Z,7.47
2018-04-24T00:17:18.781Z,5.93
2018-04-24T00:19:44.842Z,5.27
2018-04-24T00:22:10.837Z,4.47
2018-04-24T00:24:37.085Z,4.47
2018-04-24T00:27:03.876Z,6.10
2018-04-24T00:29:29.899Z,6.00
2018-04-24T00:31:56.048Z,6.03
2018-04-24T00:34:22.119Z,7.47
2018-04-24T00:36:48.392Z,7.90
2018-04-24T00:39:14.421Z,7.60
2018-04-24T00:41:40.433Z,4.83
2018-04-24T00:44:06.462Z,6.07
2018-04-24T00:46:33.025Z,5.17
2018-04-24T00:48:59.169Z,5.53
2018-04-24T00:51:25.193Z,4.43
2018-04-24T00:53:51.232Z,4.27
2018-04-24T00:56:17.305Z,5.57
2018-04-24T00:58:43.397Z,4.53
2018-04-24T01:01:09.530Z,2.80
2018-04-24T01:03:35.859Z,7.80
2018-04-24T01:06:01.901Z,5.80
2018-04-24T01:08:27.934Z,4.83
2018-04-24T01:10:53.966Z,3.20
2018-04-24T01:13:20.065Z,7.97
2018-04-24T01:15:46.102Z,5.07
2018-04-24T01:18:12.121Z,3.53
2018-04-24T01:20:38.193Z,7.13
2018-04-24T01:23:04.229Z,5.27
2018-04-24T01:25:30.313Z,4.87
2018-04-24T01:27:56.326Z,6.70
2018-04-24T01:30:22.359Z,4.13
2018-04-24T01:32:48.965Z,4.93
2018-04-24T01:35:15.011Z,5.87
2018-04-24T01:37:41.304Z,3.83
2018-04-24T01:40:07.701Z,5.33
2018-04-24T01:42:33.725Z,4.60
2018-04-24T01:45:00.104Z,4.93
2018-04-24T01:47:26.129Z,5.43
2018-04-24T01:49:52.213Z,4.43
2018-04-24T01:52:18.983Z,6.57
2018-04-24T01:54:45.042Z,6.70
2018-04-24T01:57:11.144Z,7.23
2018-04-24T01:59:37.172Z,5.60
2018-04-24T02:02:03.310Z,4.83
2018-04-24T02:04:29.357Z,7.13
2018-04-24T02:06:55.405Z,5.70
2018-04-24T02:09:22.189Z,8.43
2018-04-24T02:11:48.213Z,4.93
2018-04-24T02:14:14.316Z,6.93
2018-04-24T02:16:40.345Z,3.77
2018-04-24T02:19:06.387Z,4.37
2018-04-24T02:21:32.426Z,4.87
2018-04-24T02:23:58.477Z,5.67
2018-04-24T02:26:24.821Z,9.30
2018-04-24T02:28:50.856Z,3.90
2018-04-24T02:31:16.874Z,4.27
2018-04-24T02:33:43.629Z,4.50
2018-04-24T02:36:09.669Z,4.33
2018-04-24T02:38:36.211Z,5.20
2018-04-24T02:41:02.254Z,4.63
2018-04-24T02:43:28.310Z,5.30
2018-04-24T02:45:54.597Z,6.07
2018-04-24T02:48:20.610Z,5.77
2018-04-24T02:50:47.107Z,5.30
2018-04-24T02:53:13.914Z,3.37
2018-04-24T02:55:40.060Z,3.40
2018-04-24T02:58:06.112Z,4.30
2018-04-24T03:00:32.121Z,4.83
2018-04-24T03:02:58.375Z,5.67
2018-04-24T03:05:24.414Z,5.70
2018-04-24T03:07:50.451Z,5.93
2018-04-24T03:10:16.885Z,5.17
2018-04-24T03:12:42.901Z,5.00
2018-04-24T03:15:08.982Z,5.63
2018-04-24T03:17:35.033Z,3.97
2018-04-24T03:20:01.082Z,5.10
2018-04-24T03:22:27.104Z,3.97
2018-04-24T03:24:53.139Z,5.70
2018-04-24T03:27:19.245Z,4.77
2018-04-24T03:29:45.286Z,6.93
2018-04-24T03:32:11.303Z,6.03
2018-04-24T03:34:37.333Z,3.93
2018-04-24T03:37:03.377Z,5.67
2018-04-24T03:39:29.447Z,4.53
2018-04-24T03:41:55.521Z,6.10
2018-04-24T03:44:21.548Z,6.77
2018-04-24T03:46:47.579Z,7.10
2018-04-24T03:49:13.609Z,5.13
2018-04-24T03:51:39.637Z,4.03
2018-04-24T03:54:06.281Z,7.40
2018-04-24T03:56:32.325Z,6.90
2018-04-24T03:58:58.386Z,6.63
2018-04-24T04:01:24.529Z,3.93
2018-04-24T04:03:50.590Z,4.87
2018-04-24T04:06:16.669Z,6.20
2018-04-24T04:08:42.686Z,6.63
2018-04-24T04:11:08.742Z,6.90
2018-04-24T04:13:34.773Z,6.33
2018-04-24T04:16:00.822Z,4.90
2018-04-24T04:18:39.250Z,4.37
2018-04-24T04:21:18.004Z,7.43
2018-04-24T04:23:56.726Z,7.23
2018-04-24T04:26:22.745Z,8.87
2018-04-24T04:28:49.749Z,4.73
2018-04-24T04:31:15.781Z,5.03
2018-04-24T04:33:41.784Z,6.00
2018-04-24T04:36:07.862Z,7.13
2018-04-24T04:38:33.916Z,3.80
2018-04-24T04:40:59.992Z,5.97
2018-04-24T04:43:26.013Z,7.73
2018-04-24T04:45:53.393Z,5.53
2018-04-24T04:48:19.409Z,4.97
2018-04-24T04:50:45.446Z,6.93
2018-04-24T04:53:11.565Z,7.17
2018-04-24T04:55:37.609Z,6.17
2018-04-24T04:58:03.620Z,5.47
2018-04-24T05:00:29.687Z,7.07
2018-04-24T05:02:55.713Z,7.00
2018-04-24T05:05:22.066Z,5.87
2018-04-24T05:07:48.841Z,7.77
2018-04-24T05:10:14.887Z,6.20
2018-04-24T05:12:41.096Z,6.43
2018-04-24T05:15:07.149Z,5.23
2018-04-24T05:17:33.245Z,6.50
2018-04-24T05:19:59.854Z,5.27
2018-04-24T05:22:25.861Z,6.33
2018-04-24T05:24:52.616Z,7.37
2018-04-24T05:27:18.881Z,6.00
2018-04-24T05:29:44.925Z,6.03
2018-04-24T05:32:10.974Z,8.23
2018-04-24T05:34:37.003Z,6.67
2018-04-24T05:37:03.081Z,8.00
2018-04-24T05:39:29.120Z,5.50
2018-04-24T05:41:55.173Z,6.20
2018-04-24T05:44:21.380Z,5.60
2018-04-24T05:46:47.402Z,5.67
2018-04-24T05:49:13.737Z,8.47
2018-04-24T05:51:40.246Z,7.00
2018-04-24T05:54:06.337Z,5.70
2018-04-24T05:56:32.380Z,6.37
2018-04-24T05:58:58.404Z,7.43
2018-04-24T06:01:24.473Z,7.13
2018-04-24T06:03:50.525Z,6.23
2018-04-24T06:06:17.300Z,8.23
2018-04-24T06:08:43.360Z,6.03
2018-04-24T06:11:09.353Z,8.47
2018-04-24T06:13:35.996Z,6.83
2018-04-24T06:16:02.125Z,9.50
2018-04-24T06:18:28.180Z,7.93
2018-04-24T06:20:54.377Z,7.50
2018-04-24T06:23:20.405Z,6.67
2018-04-24T06:25:46.413Z,8.63
2018-04-24T06:28:12.478Z,8.60
2018-04-24T06:30:38.546Z,7.50
2018-04-24T06:33:04.619Z,6.00
2018-04-24T06:35:31.246Z,6.13
2018-04-24T06:37:57.265Z,7.93
2018-04-24T06:40:23.274Z,6.70
2018-04-24T06:42:49.353Z,7.43
2018-04-24T06:45:15.413Z,6.03
2018-04-24T06:47:42.234Z,6.77
2018-04-24T06:50:08.219Z,7.17
2018-04-24T06:52:34.429Z,8.97
2018-04-24T06:55:00.593Z,9.73
2018-04-24T06:57:26.578Z,8.17
2018-04-24T06:59:52.609Z,10.67
2018-04-24T07:02:18.661Z,10.03
2018-04-24T07:04:44.687Z,9.33
2018-04-24T07:07:10.775Z,10.97
2018-04-24T07:09:36.807Z,15.57
2018-04-24T07:12:02.857Z,15.30
2018-04-24T07:14:29.259Z,10.13
2018-04-24T07:16:55.289Z,13.30
2018-04-24T07:19:21.337Z,14.27
2018-04-24T07:21:47.538Z,12.60
2018-04-24T07:24:13.577Z,14.63
2018-04-24T07:26:39.594Z,15.83
2018-04-24T07:29:05.606Z,18.97
2018-04-24T07:31:31.759Z,19.57
2018-04-24T07:33:57.862Z,19.03
2018-04-24T07:36:23.940Z,20.40
2018-04-24T07:38:49.946Z,13.20
2018-04-24T07:41:16.545Z,13.70
2018-04-24T07:43:42.565Z,14.70
2018-04-24T07:46:09.047Z,17.90
2018-04-24T07:48:35.069Z,14.90
2018-04-24T07:51:01.103Z,20.30
2018-04-24T07:53:27.137Z,17.00
2018-04-24T07:55:53.155Z,17.90
2018-04-24T07:58:19.321Z,16.77
2018-04-24T08:00:45.459Z,15.60
2018-04-24T08:03:11.457Z,12.63
2018-04-24T08:05:37.601Z,15.53
2018-04-24T08:08:03.753Z,15.37
2018-04-24T08:10:29.804Z,16.40
2018-04-24T08:12:56.145Z,13.63
2018-04-24T08:15:22.189Z,14.03
2018-04-24T08:17:48.742Z,16.30
2018-04-24T08:20:14.761Z,14.10
2018-04-24T08:22:40.805Z,15.37
2018-04-24T08:25:06.875Z,13.00
2018-04-24T08:27:32.918Z,15.50
2018-04-24T08:29:59.669Z,14.37
2018-04-24T08:32:25.695Z,14.90
2018-04-24T08:34:51.890Z,15.57
2018-04-24T08:37:17.969Z,10.83
2018-04-24T08:39:43.993Z,11.60
2018-04-24T08:42:10.052Z,12.80
2018-04-24T08:44:36.065Z,16.23
2018-04-24T08:47:02.255Z,14.60
2018-04-24T08:49:28.493Z,15.30
2018-04-24T08:51:54.515Z,14.50
2018-04-24T08:54:20.574Z,13.73
2018-04-24T08:56:47.370Z,13.93
2018-04-24T08:59:13.386Z,14.13
2018-04-24T09:01:39.529Z,14.40
2018-04-24T09:04:05.553Z,19.20
2018-04-24T09:06:31.617Z,14.53
2018-04-24T09:08:57.676Z,14.33
2018-04-24T09:11:23.685Z,17.83
2018-04-24T09:13:49.724Z,16.63
2018-04-24T09:16:15.810Z,14.87
2018-04-24T09:18:42.133Z,13.17
2018-04-24T09:21:08.216Z,15.60
2018-04-24T09:23:34.233Z,13.13
2018-04-24T09:26:00.297Z,12.47
2018-04-24T09:28:26.473Z,16.87
2018-04-24T09:30:52.506Z,16.03
2018-04-24T09:33:18.637Z,15.43
2018-04-24T09:35:45.394Z,12.27
2018-04-24T09:38:11.550Z,12.93
2018-04-24T09:40:37.608Z,11.10
2018-04-24T09:43:03.652Z,12.20
2018-04-24T09:45:29.697Z,15.07
2018-04-24T09:47:55.710Z,13.20
2018-04-24T09:50:21.758Z,13.17
2018-04-24T09:52:47.802Z,12.23
2018-04-24T09:55:14.597Z,13.83
2018-04-24T09:57:40.617Z,11.80
2018-04-24T10:00:06.802Z,12.87
2018-04-24T10:02:32.869Z,13.33
2018-04-24T10:04:59.046Z,14.20
2018-04-24T10:07:25.497Z,12.00
2018-04-24T10:09:51.547Z,13.47
2018-04-24T10:12:17.623Z,13.07
2018-04-24T10:14:43.825Z,13.87
2018-04-24T10:17:09.899Z,13.83
2018-04-24T10:19:35.913Z,12.80
2018-04-24T10:22:01.945Z,14.70
2018-04-24T10:24:28.125Z,14.40
2018-04-24T10:26:54.249Z,13.13
2018-04-24T10:29:20.385Z,14.00
2018-04-24T10:31:46.425Z,13.63
2018-04-24T10:34:12.466Z,13.60
2018-04-24T10:36:38.477Z,14.13
2018-04-24T10:39:04.553Z,13.30
2018-04-24T10:41:30.869Z,13.33
2018-04-24T10:43:56.972Z,13.37
2018-04-24T10:46:22.942Z,13.57
2018-04-24T10:48:48.973Z,13.30
2018-04-24T10:51:15.767Z,12.50
2018-04-24T10:53:41.805Z,11.80
2018-04-24T10:56:07.837Z,13.70
2018-04-24T10:58:33.857Z,11.37
2018-04-24T11:00:59.873Z,12.53
2018-04-24T11:03:25.937Z,13.00
2018-04-24T11:05:52.013Z,15.73
2018-04-24T11:08:18.058Z,16.63
2018-04-24T11:10:44.562Z,15.63
2018-04-24T11:13:10.577Z,13.43
2018-04-24T11:15:36.641Z,11.83
2018-04-24T11:18:02.704Z,13.80
2018-04-24T11:20:28.725Z,15.43
2018-04-24T11:22:54.756Z,13.47
2018-04-24T11:25:20.790Z,13.20
2018-04-24T11:27:47.044Z,14.27
2018-04-24T11:30:14.018Z,13.03
2018-04-24T11:32:39.957Z,15.63
2018-04-24T11:35:05.987Z,13.83
2018-04-24T11:37:32.025Z,14.53
2018-04-24T11:39:58.077Z,12.67
2018-04-24T11:42:24.098Z,13.70
2018-04-24T11:44:50.165Z,12.07
2018-04-24T11:47:16.221Z,11.90
2018-04-24T11:49:42.255Z,13.53
2018-04-24T11:52:08.300Z,14.93
2018-04-24T11:54:34.337Z,11.57
2018-04-24T11:57:00.404Z,13.33
2018-04-24T11:59:27.373Z,15.20
2018-04-24T12:01:53.385Z,14.33
2018-04-24T12:04:19.437Z,14.20
2018-04-24T12:06:46.881Z,15.27
2018-04-24T12:09:12.957Z,15.17
2018-04-24T12:11:38.993Z,16.23
2018-04-24T12:14:06.151Z,14.80
2018-04-24T12:16:32.190Z,13.90
2018-04-24T12:18:58.221Z,14.97
2018-04-24T12:21:24.638Z,14.70
2018-04-24T12:23:50.673Z,14.23
2018-04-24T12:26:16.677Z,15.67
2018-04-24T12:28:43.005Z,13.90
2018-04-24T12:31:09.769Z,14.33
2018-04-24T12:33:35.835Z,14.23
2018-04-24T12:36:01.851Z,11.77
2018-04-24T12:38:27.870Z,13.97
2018-04-24T12:40:53.962Z,14.60
2018-04-24T12:43:19.974Z,11.70
2018-04-24T12:45:46.782Z,11.70
2018-04-24T12:48:13.557Z,15.13
2018-04-24T12:50:40.291Z,12.53
2018-04-24T12:53:07.073Z,15.00
2018-04-24T12:55:33.169Z,14.27
2018-04-24T12:58:00.257Z,14.00
2018-04-24T13:00:26.278Z,14.73
2018-04-24T13:02:52.698Z,13.03
2018-04-24T13:05:19.240Z,12.47
2018-04-24T13:07:45.277Z,11.67
2018-04-24T13:10:11.741Z,13.37
2018-04-24T13:12:37.813Z,13.00
2018-04-24T13:15:03.849Z,11.13
2018-04-24T13:17:29.877Z,13.57
2018-04-24T13:19:56.038Z,11.67
2018-04-24T13:22:22.842Z,11.27
2018-04-24T13:24:48.901Z,11.43
2018-04-24T13:27:14.946Z,9.73
2018-04-24T13:29:40.953Z,11.57
2018-04-24T13:32:07.004Z,17.83
2018-04-24T13:34:33.777Z,11.57
2018-04-24T13:36:59.838Z,14.70
2018-04-24T13:39:25.861Z,12.67
2018-04-24T13:41:52.623Z,10.97
2018-04-24T13:44:18.716Z,10.93
2018-04-24T13:46:44.726Z,11.60
2018-04-24T13:49:10.880Z,11.97
2018-04-24T13:51:36.900Z,16.17
2018-04-24T13:54:02.909Z,13.33
2018-04-24T13:56:28.978Z,13.20
2018-04-24T13:58:55.033Z,14.03
2018-04-24T14:01:21.185Z,14.37
2018-04-24T14:03:47.212Z,12.07
2018-04-24T14:06:13.268Z,12.50
2018-04-24T14:08:39.367Z,17.07
2018-04-24T14:11:05.600Z,10.17
2018-04-24T14:13:31.641Z,11.83
2018-04-24T14:15:57.697Z,14.17
2018-04-24T14:18:23.713Z,13.43
2018-04-24T14:20:50.511Z,11.53
2018-04-24T14:23:16.552Z,10.17
2018-04-24T14:25:42.720Z,14.53
2018-04-24T14:28:09.385Z,13.13
2018-04-24T14:30:35.404Z,9.50
2018-04-24T14:33:01.511Z,12.97
2018-04-24T14:35:27.569Z,10.97
2018-04-24T14:37:53.654Z,10.13
2018-04-24T14:40:19.699Z,12.97
2018-04-24T14:42:45.776Z,11.23
2018-04-24T14:45:11.749Z,13.10
2018-04-24T14:47:37.783Z,11.60
2018-04-24T14:50:03.870Z,10.90
2018-04-24T14:52:31.262Z,11.03
2018-04-24T14:54:57.289Z,11.47
2018-04-24T14:57:23.719Z,11.60
2018-04-24T14:59:50.053Z,14.97
2018-04-24T15:02:16.110Z,11.23
2018-04-24T15:04:42.257Z,12.33
2018-04-24T15:07:08.374Z,13.57
2018-04-24T15:09:34.329Z,12.80
2018-04-24T15:12:00.389Z,11.60
2018-04-24T15:14:26.473Z,11.97
2018-04-24T15:16:52.638Z,13.87
2018-04-24T15:19:18.685Z,13.80
2018-04-24T15:21:44.830Z,12.00
2018-04-24T15:24:10.838Z,14.17
2018-04-24T15:26:37.657Z,13.23
2018-04-24T15:29:03.697Z,12.50
2018-04-24T15:31:29.711Z,12.20
2018-04-24T15:33:55.815Z,12.90
2018-04-24T15:36:21.871Z,11.43
2018-04-24T15:38:47.957Z,11.63
2018-04-24T15:41:13.969Z,12.20
2018-04-24T15:43:39.997Z,9.83
2018-04-24T15:46:06.083Z,11.00
2018-04-24T15:48:32.114Z,11.40
2018-04-24T15:50:58.152Z,11.17
2018-04-24T15:53:24.193Z,12.93
2018-04-24T15:55:50.201Z,11.77
2018-04-24T15:58:16.237Z,10.70
2018-04-24T16:00:42.297Z,9.97
2018-04-24T16:03:08.474Z,9.00
2018-04-24T16:05:34.525Z,10.17
2018-04-24T16:08:00.537Z,9.13
2018-04-24T16:10:26.557Z,8.33
2018-04-24T16:12:53.475Z,11.93
2018-04-24T16:15:19.633Z,11.87
2018-04-24T16:17:45.677Z,11.37
2018-04-24T16:20:11.809Z,9.13
2018-04-24T16:22:37.869Z,10.33
2018-04-24T16:25:03.937Z,9.57
2018-04-24T16:27:30.105Z,10.07
2018-04-24T16:29:56.252Z,11.80
2018-04-24T16:32:22.197Z,8.47
2018-04-24T16:34:48.242Z,9.30
2018-04-24T16:37:14.430Z,11.20
2018-04-24T16:39:40.586Z,8.77
2018-04-24T16:42:07.051Z,11.53
2018-04-24T16:44:33.069Z,9.90
2018-04-24T16:46:59.130Z,11.77
2018-04-24T16:49:25.258Z,8.83
2018-04-24T16:51:51.364Z,10.03
2018-04-24T16:54:17.556Z,8.90
2018-04-24T16:56:43.525Z,8.87
2018-04-24T16:59:09.544Z,7.97
2018-04-24T17:01:35.879Z,10.33
2018-04-24T17:04:01.924Z,8.10
2018-04-24T17:06:27.985Z,8.00
2018-04-24T17:08:53.988Z,10.97
2018-04-24T17:11:20.802Z,8.00
2018-04-24T17:13:47.201Z,8.53
2018-04-24T17:16:13.350Z,9.83
2018-04-24T17:18:39.380Z,7.63
2018-04-24T17:21:05.507Z,8.23
2018-04-24T17:23:32.117Z,11.63
2018-04-24T17:25:58.152Z,10.93
2018-04-24T17:28:24.426Z,8.67
2018-04-24T17:30:50.493Z,10.80
2018-04-24T17:33:16.489Z,9.17
2018-04-24T17:35:42.932Z,8.10
2018-04-24T17:38:08.905Z,8.50
2018-04-24T17:40:34.952Z,13.37
2018-04-24T17:43:00.998Z,9.23
2018-04-24T17:45:27.021Z,9.90
2018-04-24T17:47:53.777Z,12.97
2018-04-24T17:50:19.929Z,8.60
2018-04-24T17:52:46.262Z,11.57
2018-04-24T17:55:12.301Z,9.83
2018-04-24T17:57:38.342Z,12.90
2018-04-24T18:00:04.393Z,8.57
2018-04-24T18:02:31.370Z,10.80
2018-04-24T18:04:57.573Z,10.03
2018-04-24T18:07:24.229Z,8.97
2018-04-24T18:09:50.530Z,10.87
2018-04-24T18:12:17.313Z,12.07
2018-04-24T18:14:43.406Z,13.17
2018-04-24T18:17:10.213Z,13.77
2018-04-24T18:19:36.241Z,12.80
2018-04-24T18:22:03.082Z,10.30
2018-04-24T18:24:29.477Z,9.63
2018-04-24T18:26:55.629Z,10.20
2018-04-24T18:29:21.766Z,11.13
2018-04-24T18:31:47.794Z,12.00
2018-04-24T18:34:13.822Z,12.67
2018-04-24T18:36:39.828Z,10.10
2018-04-24T18:39:05.857Z,9.10
2018-04-24T18:41:32.057Z,11.97
2018-04-24T18:43:58.089Z,12.00
2018-04-24T18:46:24.311Z,9.57
2018-04-24T18:48:50.354Z,10.10
2018-04-24T18:51:16.377Z,11.57
2018-04-24T18:53:42.469Z,11.87
2018-04-24T18:56:08.504Z,9.50
2018-04-24T18:58:34.505Z,11.13
2018-04-24T19:01:00.525Z,10.03
2018-04-24T19:03:26.661Z,10.07
2018-04-24T19:05:52.710Z,12.63
2018-04-24T19:08:19.061Z,10.77
2018-04-24T19:10:45.090Z,11.80
2018-04-24T19:13:11.119Z,12.80
2018-04-24T19:15:37.521Z,10.37
2018-04-24T19:18:03.536Z,12.13
2018-04-24T19:20:29.633Z,13.13
2018-04-24T19:22:56.500Z,11.87
2018-04-24T19:25:28.677Z,13.03
2018-04-24T19:27:54.689Z,10.93
2018-04-24T19:30:20.694Z,13.70
2018-04-24T19:32:46.806Z,13.63
2018-04-24T19:35:12.845Z,11.83
2018-04-24T19:37:38.853Z,13.13
2018-04-24T19:40:11.549Z,13.07
2018-04-24T19:42:37.573Z,12.80
2018-04-24T19:45:03.750Z,12.77
2018-04-24T19:47:29.800Z,12.80
2018-04-24T19:50:02.229Z,12.07
2018-04-24T19:52:28.261Z,10.23
2018-04-24T19:55:00.334Z,13.07
2018-04-24T19:57:26.569Z,11.07
2018-04-24T19:59:52.613Z,14.10
2018-04-24T20:02:18.629Z,13.00
2018-04-24T20:04:44.642Z,11.23
2018-04-24T20:07:10.934Z,11.13
2018-04-24T20:09:37.011Z,14.17
2018-04-24T20:12:03.032Z,14.33
2018-04-24T20:14:29.400Z,12.23
2018-04-24T20:16:55.409Z,12.67
2018-04-24T20:19:21.431Z,9.73
2018-04-24T20:21:47.497Z,15.20
2018-04-24T20:24:13.586Z,10.90
2018-04-24T20:26:40.381Z,12.03
2018-04-24T20:29:06.433Z,10.40
2018-04-24T20:31:32.453Z,11.77
2018-04-24T20:33:58.498Z,12.83
2018-04-24T20:36:24.793Z,15.83
2018-04-24T20:38:50.844Z,11.27
2018-04-24T20:41:16.904Z,10.80
2018-04-24T20:43:43.357Z,9.40
2018-04-24T20:46:09.413Z,10.10
2018-04-24T20:48:35.449Z,11.53
2018-04-24T20:51:01.579Z,10.67
2018-04-24T20:53:27.563Z,8.27
2018-04-24T20:55:53.705Z,10.00
2018-04-24T20:58:20.006Z,9.90
2018-04-24T21:00:46.115Z,7.23
2018-04-24T21:03:12.082Z,8.73
2018-04-24T21:05:38.137Z,10.07
2018-04-24T21:08:04.185Z,9.20
2018-04-24T21:10:30.263Z,10.93
2018-04-24T21:12:56.269Z,12.67
2018-04-24T21:15:22.293Z,9.23
2018-04-24T21:17:48.353Z,7.33
2018-04-24T21:20:14.737Z,9.30
2018-04-24T21:22:40.837Z,8.23
2018-04-24T21:25:06.881Z,8.33
2018-04-24T21:27:32.918Z,9.13
2018-04-24T21:29:59.249Z,9.00
2018-04-24T21:32:25.294Z,7.00
2018-04-24T21:34:51.389Z,9.33
2018-04-24T21:37:17.934Z,7.77
2018-04-24T21:39:43.957Z,10.00
2018-04-24T21:42:10.000Z,7.50
2018-04-24T21:44:36.022Z,8.87
2018-04-24T21:47:02.091Z,11.70
2018-04-24T21:49:29.009Z,11.33
2018-04-24T21:51:55.088Z,9.27
2018-04-24T21:54:21.302Z,8.10
2018-04-24T21:56:47.813Z,7.80
2018-04-24T21:59:13.880Z,8.73
2018-04-24T22:01:40.055Z,10.03
2018-04-24T22:04:06.123Z,8.43
2018-04-24T22:06:32.149Z,9.57
2018-04-24T22:08:58.270Z,11.27
2018-04-24T22:11:24.420Z,8.53
2018-04-24T22:13:50.573Z,6.27
2018-04-24T22:16:16.635Z,8.47
2018-04-24T22:18:42.649Z,8.83
2018-04-24T22:21:08.681Z,9.47
2018-04-24T22:23:34.832Z,8.20
2018-04-24T22:26:00.986Z,6.90
2018-04-24T22:28:27.029Z,9.90
2018-04-24T22:30:53.089Z,7.43
2018-04-24T22:33:19.561Z,9.87
2018-04-24T22:35:45.650Z,9.83
2018-04-24T22:38:11.656Z,10.30
2018-04-24T22:40:37.846Z,11.13
2018-04-24T22:43:03.861Z,7.87
2018-04-24T22:45:29.906Z,10.00
2018-04-24T22:47:55.954Z,9.60
2018-04-24T22:50:22.103Z,13.13
2018-04-24T22:52:48.125Z,9.47
2018-04-24T22:55:14.129Z,8.70
2018-04-24T22:57:40.174Z,9.80
2018-04-24T23:00:06.333Z,8.97
2018-04-24T23:02:32.396Z,7.23
2018-04-24T23:04:58.382Z,8.83
2018-04-24T23:07:24.423Z,9.27
2018-04-24T23:09:52.412Z,10.53
2018-04-24T23:12:30.678Z,10.63
2018-04-24T23:15:10.542Z,10.60
2018-04-24T23:17:48.861Z,8.23
2018-04-24T23:20:15.181Z,7.53
2018-04-24T23:22:41.226Z,10.20
2018-04-24T23:25:07.265Z,8.63
2018-04-24T23:27:33.306Z,9.73
2018-04-24T23:29:59.377Z,8.80
2018-04-24T23:32:25.422Z,10.10
2018-04-24T23:34:51.489Z,8.77
2018-04-24T23:37:17.520Z,10.00
2018-04-24T23:39:43.561Z,7.73
2018-04-24T23:42:09.597Z,11.03
2018-04-24T23:44:35.643Z,9.97
2018-04-24T23:47:01.681Z,10.50
2018-04-24T23:49:27.695Z,10.30
2018-04-24T23:51:53.805Z,12.60
2018-04-24T23:54:19.958Z,15.30
2018-04-24T23:56:45.981Z,17.00
2018-04-24T23:59:12.029Z,16.63
